createdAt,value
2019-01-10T00:01:13.734Z,14.47
2019-01-10T00:03:42.800Z,16.35
2019-01-10T00:06:11.871Z,17.02
2019-01-10T00:08:40.931Z,8.20
2019-01-10T00:11:10.127Z,13.45
2019-01-10T00:13:39.199Z,8.05
2019-01-10T00:16:08.323Z,11.88
2019-01-10T00:18:37.648Z,15.50
2019-01-10T00:21:06.718Z,8.83
2019-01-10T00:23:35.784Z,9.65
2019-01-10T00:26:04.940Z,13.65
2019-01-10T00:28:34.016Z,9.95
2019-01-10T00:31:03.194Z,9.98
2019-01-10T00:33:32.247Z,11.30
2019-01-10T00:36:01.306Z,13.28
2019-01-10T00:38:30.401Z,9.80
2019-01-10T00:40:59.371Z,7.22
2019-01-10T00:43:28.535Z,10.25
2019-01-10T00:45:57.625Z,10.10
2019-01-10T00:48:26.689Z,16.20
2019-01-10T00:50:55.775Z,10.50
2019-01-10T00:53:24.835Z,8.05
2019-01-10T00:55:53.937Z,11.08
2019-01-10T00:58:22.924Z,9.48
2019-01-10T01:00:53.604Z,9.80
2019-01-10T01:03:22.668Z,14.00
2019-01-10T01:05:51.715Z,13.83
2019-01-10T01:08:20.840Z,11.08
2019-01-10T01:10:49.930Z,9.98
2019-01-10T01:13:18.985Z,10.40
2019-01-10T01:15:48.053Z,13.78
2019-01-10T01:18:17.125Z,8.98
2019-01-10T01:20:46.197Z,12.65
2019-01-10T01:23:15.355Z,14.33
2019-01-10T01:25:44.486Z,8.45
2019-01-10T01:28:13.502Z,7.40
2019-01-10T01:30:42.538Z,10.75
2019-01-10T01:33:11.725Z,10.75
2019-01-10T01:35:40.826Z,8.10
2019-01-10T01:38:09.904Z,8.90
2019-01-10T01:40:39.012Z,10.30
2019-01-10T01:43:08.069Z,7.92
2019-01-10T01:45:39.308Z,5.28
2019-01-10T01:48:08.396Z,6.90
2019-01-10T01:50:37.505Z,10.80
2019-01-10T01:53:06.581Z,7.20
2019-01-10T01:55:35.667Z,8.13
2019-01-10T01:58:04.830Z,8.03
2019-01-10T02:00:34.384Z,6.00
2019-01-10T02:03:03.545Z,8.38
2019-01-10T02:05:32.666Z,10.68
2019-01-10T02:08:02.601Z,9.75
2019-01-10T02:10:31.680Z,14.83
2019-01-10T02:13:00.782Z,10.18
2019-01-10T02:15:29.930Z,8.63
2019-01-10T02:17:59.081Z,7.53
2019-01-10T02:20:28.185Z,8.15
2019-01-10T02:22:57.266Z,7.58
2019-01-10T02:25:26.327Z,9.30
2019-01-10T02:28:02.792Z,9.93
2019-01-10T02:30:41.612Z,6.75
2019-01-10T02:33:03.070Z,7.00
2019-01-10T02:35:32.200Z,6.92
2019-01-10T02:38:01.266Z,10.65
2019-01-10T02:40:30.286Z,14.95
2019-01-10T02:42:59.248Z,15.68
2019-01-10T02:45:28.406Z,9.15
2019-01-10T02:47:57.448Z,9.20
2019-01-10T02:50:26.703Z,10.60
2019-01-10T02:52:55.755Z,16.73
2019-01-10T02:55:24.863Z,9.65
2019-01-10T02:57:53.937Z,8.78
2019-01-10T03:00:25.530Z,6.92
2019-01-10T03:02:54.722Z,12.70
2019-01-10T03:05:24.266Z,9.20
2019-01-10T03:07:53.464Z,5.87
2019-01-10T03:10:25.135Z,8.13
2019-01-10T03:12:54.274Z,7.25
2019-01-10T03:15:23.395Z,6.50
2019-01-10T03:17:52.453Z,8.40
2019-01-10T03:20:22.849Z,10.38
2019-01-10T03:22:52.006Z,11.93
2019-01-10T03:25:21.064Z,11.35
2019-01-10T03:27:50.281Z,12.78
2019-01-10T03:30:20.413Z,11.78
2019-01-10T03:32:49.829Z,7.78
2019-01-10T03:35:18.936Z,12.53
2019-01-10T03:37:48.003Z,8.55
2019-01-10T03:40:19.078Z,9.50
2019-01-10T03:42:48.149Z,7.17
2019-01-10T03:45:18.507Z,6.87
2019-01-10T03:47:47.809Z,8.45
2019-01-10T03:50:17.251Z,8.33
2019-01-10T03:52:46.822Z,22.70
2019-01-10T03:55:16.108Z,12.60
2019-01-10T03:57:45.294Z,8.78
2019-01-10T04:00:19.766Z,7.30
2019-01-10T04:02:48.784Z,6.25
2019-01-10T04:05:17.984Z,6.72
2019-01-10T04:07:47.146Z,9.45
2019-01-10T04:10:16.276Z,7.42
2019-01-10T04:12:45.375Z,7.80
2019-01-10T04:15:14.860Z,5.50
2019-01-10T04:17:43.951Z,9.93
2019-01-10T04:20:14.445Z,15.53
2019-01-10T04:22:43.561Z,9.45
2019-01-10T04:25:12.870Z,17.12
2019-01-10T04:27:43.707Z,5.40
2019-01-10T04:30:17.904Z,10.03
2019-01-10T04:32:47.155Z,3.95
2019-01-10T04:35:16.261Z,6.12
2019-01-10T04:37:45.290Z,9.38
2019-01-10T04:40:16.639Z,9.65
2019-01-10T04:42:45.652Z,8.23
2019-01-10T04:45:14.931Z,11.33
2019-01-10T04:47:44.037Z,8.60
2019-01-10T04:50:13.726Z,7.37
2019-01-10T04:52:42.738Z,6.80
2019-01-10T04:55:27.934Z,6.78
2019-01-10T04:57:57.060Z,9.15
2019-01-10T05:00:26.455Z,5.70
2019-01-10T05:02:55.509Z,12.15
2019-01-10T05:05:24.579Z,10.20
2019-01-10T05:07:53.737Z,10.40
2019-01-10T05:10:22.823Z,8.23
2019-01-10T05:12:51.858Z,6.83
2019-01-10T05:15:21.162Z,12.28
2019-01-10T05:17:50.273Z,6.80
2019-01-10T05:20:20.338Z,5.25
2019-01-10T05:22:49.599Z,7.80
2019-01-10T05:25:18.751Z,6.70
2019-01-10T05:27:48.041Z,12.33
2019-01-10T05:30:24.460Z,6.95
2019-01-10T05:32:54.043Z,9.98
2019-01-10T05:35:23.203Z,4.47
2019-01-10T05:37:52.302Z,9.38
2019-01-10T05:40:21.651Z,7.37
2019-01-10T05:42:50.840Z,6.12
2019-01-10T05:45:20.090Z,7.22
2019-01-10T05:47:49.396Z,4.37
2019-01-10T05:50:18.503Z,7.20
2019-01-10T05:52:47.615Z,7.53
2019-01-10T05:55:18.947Z,9.23
2019-01-10T05:57:48.062Z,6.90
2019-01-10T06:00:25.764Z,11.25
2019-01-10T06:02:54.869Z,7.00
2019-01-10T06:05:23.908Z,5.33
2019-01-10T06:07:52.997Z,7.33
2019-01-10T06:10:24.358Z,7.55
2019-01-10T06:12:53.434Z,7.45
2019-01-10T06:15:22.888Z,6.95
2019-01-10T06:17:52.107Z,9.00
2019-01-10T06:20:21.607Z,7.83
2019-01-10T06:22:50.706Z,8.05
2019-01-10T06:25:19.885Z,7.70
2019-01-10T06:27:49.058Z,6.62
2019-01-10T06:30:22.864Z,5.62
2019-01-10T06:32:52.086Z,4.65
2019-01-10T06:35:21.168Z,7.20
2019-01-10T06:37:50.228Z,10.75
2019-01-10T06:40:20.881Z,12.25
2019-01-10T06:42:49.947Z,6.10
2019-01-10T06:45:24.456Z,5.53
2019-01-10T06:47:53.621Z,6.37
2019-01-10T06:50:22.723Z,5.20
2019-01-10T06:52:51.825Z,10.90
2019-01-10T06:55:20.956Z,11.95
2019-01-10T06:57:49.990Z,11.90
2019-01-10T07:00:21.142Z,8.08
2019-01-10T07:02:50.470Z,6.90
2019-01-10T07:05:19.756Z,12.68
2019-01-10T07:07:56.212Z,6.97
2019-01-10T07:10:22.210Z,8.33
2019-01-10T07:12:51.267Z,9.38
2019-01-10T07:15:20.334Z,7.10
2019-01-10T07:17:49.559Z,8.45
2019-01-10T07:20:18.764Z,10.03
2019-01-10T07:22:49.361Z,9.43
2019-01-10T07:25:18.557Z,9.48
2019-01-10T07:27:51.470Z,5.58
2019-01-10T07:30:35.468Z,16.25
2019-01-10T07:32:56.927Z,6.45
2019-01-10T07:35:26.080Z,9.55
2019-01-10T07:37:58.411Z,8.90
2019-01-10T07:40:28.078Z,11.60
2019-01-10T07:42:57.668Z,16.10
2019-01-10T07:45:30.277Z,5.53
2019-01-10T07:47:59.387Z,5.28
2019-01-10T07:50:36.061Z,13.03
2019-01-10T07:53:07.255Z,7.22
2019-01-10T07:55:37.524Z,9.60
2019-01-10T07:58:06.588Z,6.53
2019-01-10T08:00:35.928Z,8.55
2019-01-10T08:03:05.496Z,8.75
2019-01-10T08:05:34.608Z,6.92
2019-01-10T08:08:03.812Z,5.25
2019-01-10T08:10:32.926Z,10.82
2019-01-10T08:13:01.973Z,10.32
2019-01-10T08:15:31.020Z,8.30
2019-01-10T08:18:00.087Z,6.78
2019-01-10T08:20:29.171Z,7.03
2019-01-10T08:22:58.245Z,6.55
2019-01-10T08:25:27.312Z,10.80
2019-01-10T08:27:56.393Z,13.30
2019-01-10T08:30:26.000Z,9.48
2019-01-10T08:32:55.069Z,9.33
2019-01-10T08:35:28.514Z,9.48
2019-01-10T08:37:57.752Z,6.08
2019-01-10T08:40:27.106Z,12.40
2019-01-10T08:42:56.506Z,7.95
2019-01-10T08:45:26.063Z,12.20
2019-01-10T08:47:55.394Z,8.88
2019-01-10T08:50:25.756Z,8.05
2019-01-10T08:52:55.182Z,11.48
2019-01-10T08:55:24.499Z,8.13
2019-01-10T08:57:53.998Z,14.40
2019-01-10T09:00:24.393Z,8.48
2019-01-10T09:02:54.171Z,7.90
2019-01-10T09:05:23.335Z,6.33
2019-01-10T09:07:52.567Z,9.20
2019-01-10T09:10:29.925Z,9.58
2019-01-10T09:12:59.139Z,10.88
2019-01-10T09:15:34.734Z,6.72
2019-01-10T09:18:00.412Z,9.88
2019-01-10T09:20:29.672Z,9.15
2019-01-10T09:22:58.826Z,8.23
2019-01-10T09:25:28.017Z,8.88
2019-01-10T09:27:57.550Z,6.70
2019-01-10T09:30:26.782Z,9.70
2019-01-10T09:32:56.024Z,5.00
2019-01-10T09:35:25.263Z,7.37
2019-01-10T09:37:54.552Z,7.55
2019-01-10T09:40:24.103Z,7.30
2019-01-10T09:42:53.485Z,8.50
2019-01-10T09:45:24.697Z,9.80
2019-01-10T09:47:53.849Z,10.45
2019-01-10T09:50:23.502Z,6.45
2019-01-10T09:52:53.410Z,10.95
2019-01-10T09:55:22.705Z,11.97
2019-01-10T09:57:51.995Z,5.95
2019-01-10T10:00:31.065Z,12.93
2019-01-10T10:02:59.977Z,8.28
2019-01-10T10:05:29.203Z,7.62
2019-01-10T10:07:58.429Z,10.08
2019-01-10T10:10:27.595Z,12.13
2019-01-10T10:12:56.861Z,7.37
2019-01-10T10:15:26.103Z,7.80
2019-01-10T10:17:55.289Z,10.75
2019-01-10T10:20:25.643Z,6.58
2019-01-10T10:22:55.165Z,10.20
2019-01-10T10:25:25.935Z,7.62
2019-01-10T10:28:01.409Z,13.50
2019-01-10T10:30:30.623Z,8.93
2019-01-10T10:32:59.907Z,12.10
2019-01-10T10:35:29.029Z,10.53
2019-01-10T10:37:58.175Z,7.47
2019-01-10T10:40:27.359Z,7.97
2019-01-10T10:42:56.528Z,6.47
2019-01-10T10:45:25.863Z,9.20
2019-01-10T10:47:54.975Z,9.83
2019-01-10T10:50:28.949Z,9.05
2019-01-10T10:52:58.139Z,11.10
2019-01-10T10:55:27.341Z,11.73
2019-01-10T10:57:56.566Z,13.00
2019-01-10T11:00:28.509Z,13.80
2019-01-10T11:02:58.025Z,8.53
2019-01-10T11:05:27.593Z,12.45
2019-01-10T11:07:56.878Z,8.05
2019-01-10T11:10:26.179Z,8.40
2019-01-10T11:12:55.391Z,11.97
2019-01-10T11:15:24.518Z,10.43
2019-01-10T11:17:53.904Z,14.45
2019-01-10T11:20:24.090Z,7.05
2019-01-10T11:22:53.684Z,10.13
2019-01-10T11:25:27.257Z,14.80
2019-01-10T11:27:56.883Z,10.45
2019-01-10T11:30:26.197Z,11.48
2019-01-10T11:32:55.463Z,11.08
2019-01-10T11:35:24.632Z,7.55
2019-01-10T11:37:53.722Z,12.23
2019-01-10T11:40:23.378Z,9.35
2019-01-10T11:42:52.713Z,9.40
2019-01-10T11:45:26.462Z,10.03
2019-01-10T11:47:55.519Z,8.85
2019-01-10T11:50:24.804Z,14.03
2019-01-10T11:52:54.045Z,6.05
2019-01-10T11:55:23.310Z,10.38
2019-01-10T11:57:52.465Z,6.58
2019-01-10T12:00:25.016Z,10.53
2019-01-10T12:02:54.226Z,6.40
2019-01-10T12:05:23.459Z,11.48
2019-01-10T12:07:52.850Z,12.03
2019-01-10T12:10:22.189Z,10.28
2019-01-10T12:12:51.365Z,6.72
2019-01-10T12:15:20.578Z,7.83
2019-01-10T12:17:49.683Z,9.75
2019-01-10T12:20:18.912Z,9.35
2019-01-10T12:22:48.260Z,7.72
2019-01-10T12:25:17.541Z,7.60
2019-01-10T12:27:50.228Z,12.28
2019-01-10T12:30:21.518Z,8.23
2019-01-10T12:32:50.688Z,11.55
2019-01-10T12:35:19.973Z,12.78
2019-01-10T12:37:49.237Z,10.28
2019-01-10T12:40:18.354Z,7.90
2019-01-10T12:42:47.513Z,12.28
2019-01-10T12:45:20.321Z,11.60
2019-01-10T12:47:49.487Z,14.63
2019-01-10T12:50:36.961Z,13.18
2019-01-10T12:53:07.623Z,18.98
2019-01-10T12:55:36.976Z,10.88
2019-01-10T12:58:06.857Z,10.65
2019-01-10T13:00:36.072Z,5.90
2019-01-10T13:03:05.294Z,8.60
2019-01-10T13:05:34.675Z,11.97
2019-01-10T13:08:04.130Z,9.18
2019-01-10T13:10:33.284Z,11.40
2019-01-10T13:13:02.406Z,10.28
2019-01-10T13:15:31.530Z,13.78
2019-01-10T13:18:00.652Z,4.45
2019-01-10T13:20:29.718Z,4.67
2019-01-10T13:22:58.878Z,6.60
2019-01-10T13:25:28.123Z,5.12
2019-01-10T13:27:59.995Z,9.98
2019-01-10T13:30:29.380Z,6.70
2019-01-10T13:32:58.813Z,9.50
2019-01-10T13:35:28.511Z,10.48
2019-01-10T13:37:57.767Z,8.03
2019-01-10T13:40:27.263Z,7.00
2019-01-10T13:42:56.793Z,10.45
2019-01-10T13:45:26.219Z,8.50
2019-01-10T13:47:56.101Z,7.00
2019-01-10T13:50:28.279Z,7.05
2019-01-10T13:52:57.551Z,7.15
2019-01-10T13:55:27.107Z,7.67
2019-01-10T13:57:56.771Z,6.17
2019-01-10T14:00:38.907Z,6.85
2019-01-10T14:03:11.663Z,9.38
2019-01-10T14:05:40.210Z,7.05
2019-01-10T14:08:09.728Z,7.15
2019-01-10T14:10:39.526Z,6.12
2019-01-10T14:13:08.744Z,6.58
2019-01-10T14:15:38.305Z,13.88
2019-01-10T14:18:09.182Z,9.40
2019-01-10T14:20:38.493Z,9.53
2019-01-10T14:23:10.306Z,13.43
2019-01-10T14:25:39.494Z,8.38
2019-01-10T14:28:09.050Z,10.85
2019-01-10T14:30:39.762Z,6.20
2019-01-10T14:33:13.444Z,8.03
2019-01-10T14:35:42.669Z,6.90
2019-01-10T14:38:12.616Z,6.67
2019-01-10T14:40:42.513Z,7.85
2019-01-10T14:43:12.980Z,8.58
2019-01-10T14:45:47.675Z,5.28
2019-01-10T14:48:16.860Z,10.30
2019-01-10T14:50:46.177Z,11.48
2019-01-10T14:53:15.414Z,7.05
2019-01-10T14:55:44.878Z,8.85
2019-01-10T14:58:14.169Z,11.12
2019-01-10T15:00:46.223Z,11.40
2019-01-10T15:03:15.331Z,7.25
2019-01-10T15:05:44.661Z,11.28
2019-01-10T15:08:13.989Z,10.70
2019-01-10T15:10:43.711Z,9.30
2019-01-10T15:13:13.465Z,7.25
2019-01-10T15:15:42.688Z,6.17
2019-01-10T15:18:12.015Z,9.05
2019-01-10T15:20:41.296Z,3.80
2019-01-10T15:23:10.534Z,4.22
2019-01-10T15:25:39.817Z,5.03
2019-01-10T15:28:09.123Z,4.78
2019-01-10T15:30:38.461Z,7.72
2019-01-10T15:33:07.663Z,10.20
2019-01-10T15:35:36.931Z,7.47
2019-01-10T15:38:06.173Z,7.50
2019-01-10T15:40:35.643Z,6.72
2019-01-10T15:43:06.529Z,7.90
2019-01-10T15:45:36.173Z,3.30
2019-01-10T15:48:05.978Z,6.08
2019-01-10T15:50:35.307Z,6.55
2019-01-10T15:53:04.662Z,7.00
2019-01-10T15:55:33.923Z,5.22
2019-01-10T15:58:03.288Z,6.70
2019-01-10T16:00:32.854Z,3.42
2019-01-10T16:03:02.000Z,4.70
2019-01-10T16:05:31.601Z,7.62
2019-01-10T16:08:01.184Z,7.53
2019-01-10T16:10:31.557Z,6.03
2019-01-10T16:13:02.140Z,5.37
2019-01-10T16:15:31.883Z,3.85
2019-01-10T16:18:01.579Z,8.90
2019-01-10T16:20:31.172Z,7.75
2019-01-10T16:23:00.837Z,6.28
2019-01-10T16:25:30.340Z,3.87
2019-01-10T16:28:00.103Z,4.45
2019-01-10T16:30:30.705Z,6.40
2019-01-10T16:33:00.501Z,6.40
2019-01-10T16:35:30.767Z,6.97
2019-01-10T16:38:00.927Z,7.10
2019-01-10T16:40:30.511Z,2.47
2019-01-10T16:43:00.408Z,5.08
2019-01-10T16:45:34.315Z,3.20
2019-01-10T16:48:04.745Z,2.95
2019-01-10T16:50:34.414Z,4.85
2019-01-10T16:53:04.935Z,2.12
2019-01-10T16:55:34.983Z,4.80
2019-01-10T16:58:04.814Z,5.45
2019-01-10T17:00:35.593Z,4.22
2019-01-10T17:03:06.354Z,2.30
2019-01-10T17:05:35.826Z,2.75
2019-01-10T17:08:06.242Z,2.58
2019-01-10T17:10:35.974Z,5.67
2019-01-10T17:13:05.685Z,6.05
2019-01-10T17:15:35.418Z,1.82
2019-01-10T17:18:05.311Z,3.80
2019-01-10T17:20:35.316Z,3.05
2019-01-10T17:23:04.883Z,3.12
2019-01-10T17:25:34.454Z,2.65
2019-01-10T17:28:04.492Z,3.67
2019-01-10T17:30:34.051Z,5.80
2019-01-10T17:33:04.851Z,4.83
2019-01-10T17:35:34.805Z,9.20
2019-01-10T17:38:05.219Z,6.17
2019-01-10T17:40:34.867Z,3.37
2019-01-10T17:43:06.185Z,4.58
2019-01-10T17:45:37.265Z,3.60
2019-01-10T17:48:09.192Z,3.52
2019-01-10T17:50:38.805Z,4.12
2019-01-10T17:53:08.427Z,2.92
2019-01-10T17:55:37.926Z,4.92
2019-01-10T17:58:08.798Z,7.53
2019-01-10T18:00:38.788Z,6.62
2019-01-10T18:03:08.475Z,4.87
2019-01-10T18:05:38.047Z,3.15
2019-01-10T18:08:07.951Z,4.47
2019-01-10T18:10:37.701Z,3.05
2019-01-10T18:13:07.321Z,6.12
2019-01-10T18:15:36.971Z,7.33
2019-01-10T18:18:07.704Z,6.37
2019-01-10T18:20:39.658Z,7.50
2019-01-10T18:23:10.205Z,5.15
2019-01-10T18:25:39.860Z,4.22
2019-01-10T18:28:09.534Z,4.05
2019-01-10T18:30:43.355Z,4.87
2019-01-10T18:33:10.609Z,4.00
2019-01-10T18:35:40.183Z,5.62
2019-01-10T18:38:09.997Z,5.72
2019-01-10T18:40:39.592Z,6.60
2019-01-10T18:43:09.362Z,6.97
2019-01-10T18:45:40.855Z,6.25
2019-01-10T18:48:10.660Z,4.42
2019-01-10T18:50:40.240Z,5.95
2019-01-10T18:53:10.204Z,4.70
2019-01-10T18:55:39.616Z,4.47
2019-01-10T18:58:09.262Z,7.92
2019-01-10T19:00:39.415Z,4.35
2019-01-10T19:03:09.007Z,5.30
2019-01-10T19:05:38.774Z,3.72
2019-01-10T19:08:08.500Z,4.75
2019-01-10T19:10:38.760Z,4.15
2019-01-10T19:13:09.094Z,5.67
2019-01-10T19:15:38.726Z,9.10
2019-01-10T19:18:10.878Z,4.45
2019-01-10T19:20:41.374Z,4.70
2019-01-10T19:23:13.228Z,3.42
2019-01-10T19:25:43.164Z,6.17
2019-01-10T19:28:12.713Z,5.17
2019-01-10T19:30:41.915Z,3.70
2019-01-10T19:33:11.155Z,4.37
2019-01-10T19:35:40.225Z,2.30
2019-01-10T19:38:09.390Z,2.98
2019-01-10T19:40:38.566Z,4.33
2019-01-10T19:43:07.676Z,5.72
2019-01-10T19:45:37.852Z,5.50
2019-01-10T19:48:09.769Z,1.98
2019-01-10T19:50:37.770Z,2.40
2019-01-10T19:53:06.862Z,4.30
2019-01-10T19:55:35.961Z,4.65
2019-01-10T19:58:05.184Z,4.58
2019-01-10T20:00:42.662Z,4.42
2019-01-10T20:03:11.731Z,4.22
2019-01-10T20:05:40.878Z,7.35
2019-01-10T20:08:10.006Z,2.75
2019-01-10T20:10:39.160Z,2.87
2019-01-10T20:13:08.273Z,4.67
2019-01-10T20:15:37.469Z,3.42
2019-01-10T20:18:07.715Z,6.10
2019-01-10T20:20:43.283Z,5.37
2019-01-10T20:23:19.129Z,4.97
2019-01-10T20:25:48.235Z,4.00
2019-01-10T20:28:17.276Z,5.28
2019-01-10T20:30:46.377Z,5.80
2019-01-10T20:33:15.516Z,5.35
2019-01-10T20:35:44.606Z,5.87
2019-01-10T20:38:13.693Z,7.25
2019-01-10T20:40:42.902Z,7.90
2019-01-10T20:43:11.997Z,5.55
2019-01-10T20:45:41.331Z,4.22
2019-01-10T20:48:10.486Z,6.78
2019-01-10T20:50:39.636Z,8.18
2019-01-10T20:53:08.963Z,5.72
2019-01-10T20:55:38.019Z,5.67
2019-01-10T20:58:07.829Z,5.28
2019-01-10T21:00:37.059Z,4.90
2019-01-10T21:03:06.161Z,6.95
2019-01-10T21:05:35.374Z,7.20
2019-01-10T21:08:04.479Z,8.15
2019-01-10T21:10:33.651Z,6.03
2019-01-10T21:13:02.796Z,8.53
2019-01-10T21:15:32.154Z,7.75
2019-01-10T21:18:01.348Z,8.93
2019-01-10T21:20:30.426Z,8.13
2019-01-10T21:23:00.172Z,9.80
2019-01-10T21:25:29.277Z,9.05
2019-01-10T21:27:58.675Z,11.85
2019-01-10T21:30:27.743Z,11.12
2019-01-10T21:32:56.923Z,10.95
2019-01-10T21:35:26.193Z,10.30
2019-01-10T21:37:55.665Z,11.28
2019-01-10T21:41:01.880Z,12.35
2019-01-10T21:43:30.990Z,11.43
2019-01-10T21:46:00.120Z,12.05
2019-01-10T21:48:34.875Z,11.20
2019-01-10T21:51:00.256Z,9.93
2019-01-10T21:53:29.350Z,11.65
2019-01-10T21:55:58.420Z,12.30
2019-01-10T21:58:27.370Z,12.10
2019-01-10T22:00:56.662Z,11.33
2019-01-10T22:03:25.750Z,15.45
2019-01-10T22:05:54.791Z,13.95
2019-01-10T22:08:24.013Z,11.40
2019-01-10T22:10:53.076Z,12.40
2019-01-10T22:13:22.111Z,13.90
2019-01-10T22:15:51.078Z,13.65
2019-01-10T22:18:20.152Z,11.68
2019-01-10T22:20:49.203Z,13.25
2019-01-10T22:23:18.261Z,12.25
2019-01-10T22:25:47.327Z,12.10
2019-01-10T22:28:16.362Z,14.05
2019-01-10T22:30:48.254Z,15.90
2019-01-10T22:33:17.233Z,13.93
2019-01-10T22:35:46.248Z,15.85
2019-01-10T22:38:15.461Z,13.20
2019-01-10T22:40:44.506Z,12.00
2019-01-10T22:43:13.557Z,15.00
2019-01-10T22:45:42.907Z,19.48
2019-01-10T22:48:12.217Z,14.73
2019-01-10T22:50:41.276Z,15.63
2019-01-10T22:53:10.284Z,16.40
2019-01-10T22:55:39.428Z,17.55
2019-01-10T22:58:08.916Z,17.92
2019-01-10T23:00:59.673Z,16.93
2019-01-10T23:03:28.757Z,20.95
2019-01-10T23:05:57.769Z,20.92
2019-01-10T23:08:26.901Z,18.60
2019-01-10T23:10:57.261Z,19.48
2019-01-10T23:13:26.332Z,18.85
2019-01-10T23:15:56.934Z,21.73
2019-01-10T23:18:25.874Z,21.90
2019-01-10T23:20:59.858Z,22.37
2019-01-10T23:23:29.061Z,23.52
2019-01-10T23:25:58.130Z,23.27
2019-01-10T23:28:27.361Z,22.82
2019-01-10T23:31:00.746Z,23.57
2019-01-10T23:33:30.026Z,21.25
2019-01-10T23:36:01.045Z,26.45
2019-01-10T23:38:30.163Z,24.25
2019-01-10T23:40:59.734Z,26.00
2019-01-10T23:43:29.195Z,27.22
2019-01-10T23:45:58.285Z,30.80
2019-01-10T23:48:27.309Z,29.63
2019-01-10T23:50:56.421Z,28.20
2019-01-10T23:53:25.405Z,28.83
2019-01-10T23:55:54.412Z,30.25
2019-01-10T23:58:23.439Z,30.55
